Time;durP1;ratioP1;P1;durP2;ratioP2;P2;SDS_P1;SDS_P2;PMS_P1;PMS_P2;Temp;Humidity;BMP_temperature;BMP_pressure;BME280_temperature;BME280_humidity;BME280_pressure;Samples;Min_cycle;Max_cycle;Signal;HPM_P1;HPM_P2
2024/01/04 00:01:19;;;;;;;6.75;2.50;;;;;;;7.52;100.00;95635.78;5048924;28;20036;-76
2024/01/04 00:03:44;;;;;;;3.72;2.10;;;;;;;7.94;100.00;95620.13;5042141;28;20507;-77
2024/01/04 00:06:10;;;;;;;6.93;4.70;;;;;;;7.92;100.00;95622.03;5043516;28;20026;-76
2024/01/04 00:08:35;;;;;;;6.43;4.00;;;;;;;7.99;100.00;95623.19;5047678;28;20118;-76
2024/01/04 00:11:03;;;;;;;3.63;2.05;;;;;;;8.25;100.00;95624.59;5055079;28;20035;-76
2024/01/04 00:13:28;;;;;;;3.15;2.15;;;;;;;8.10;100.00;95637.22;5047371;28;20041;-77
2024/01/04 00:15:53;;;;;;;8.27;5.00;;;;;;;7.96;100.00;95638.38;5050176;28;20099;-77
2024/01/04 00:18:19;;;;;;;6.57;3.67;;;;;;;7.73;100.00;95656.78;5052386;28;20039;-76
2024/01/04 00:20:44;;;;;;;4.28;2.97;;;;;;;7.65;100.00;95649.56;5055593;28;20049;-76
2024/01/04 00:23:10;;;;;;;3.58;2.83;;;;;;;7.70;100.00;95655.25;5043793;28;20037;-76
2024/01/04 00:25:35;;;;;;;5.57;3.15;;;;;;;7.76;100.00;95663.56;5042439;28;20197;-76
2024/01/04 00:28:00;;;;;;;3.75;2.90;;;;;;;7.62;100.00;95659.47;5054668;28;20494;-76
2024/01/04 00:30:26;;;;;;;6.95;5.07;;;;;;;7.52;100.00;95678.56;5047472;28;20037;-76
2024/01/04 00:32:51;;;;;;;5.72;3.88;;;;;;;7.58;100.00;95677.22;5045429;28;20477;-76
2024/01/04 00:35:17;;;;;;;5.22;2.80;;;;;;;7.81;100.00;95640.44;5051737;28;20064;-76
2024/01/04 00:37:42;;;;;;;5.32;2.70;;;;;;;7.86;100.00;95646.97;5042001;28;20474;-77
2024/01/04 00:40:08;;;;;;;3.88;2.47;;;;;;;7.81;100.00;95653.53;5045772;28;20033;-77
2024/01/04 00:42:34;;;;;;;5.60;2.72;;;;;;;7.80;100.00;95649.25;5047158;28;20489;-77
2024/01/04 00:45:00;;;;;;;5.68;2.75;;;;;;;7.85;100.00;95644.50;5045864;28;20033;-77
2024/01/04 00:47:25;;;;;;;4.38;2.65;;;;;;;7.87;100.00;95660.91;5045365;28;20136;-77
2024/01/04 00:49:50;;;;;;;4.15;2.58;;;;;;;7.73;100.00;95644.53;5050164;28;20025;-76
2024/01/04 00:52:16;;;;;;;7.97;3.85;;;;;;;7.65;100.00;95656.59;5034618;28;20065;-76
2024/01/04 00:54:41;;;;;;;4.28;3.22;;;;;;;7.51;100.00;95668.19;5050095;28;20029;-77
2024/01/04 00:57:08;;;;;;;3.63;2.92;;;;;;;7.40;100.00;95677.72;5047830;28;20112;-77
2024/01/04 00:59:33;;;;;;;7.63;2.90;;;;;;;7.34;100.00;95699.16;5052049;28;20025;-76
2024/01/04 01:01:58;;;;;;;6.13;3.22;;;;;;;7.30;100.00;95695.97;5049442;28;20375;-76
2024/01/04 01:04:24;;;;;;;6.03;3.30;;;;;;;7.23;100.00;95709.69;5047507;28;20033;-76
2024/01/04 01:06:49;;;;;;;5.80;3.85;;;;;;;7.07;100.00;95710.03;5041693;28;20037;-76
2024/01/04 01:09:14;;;;;;;5.78;4.05;;;;;;;7.10;100.00;95733.38;5055790;28;20037;-76
2024/01/04 01:11:40;;;;;;;5.90;4.07;;;;;;;7.05;100.00;95740.72;5047301;28;20062;-76
2024/01/04 01:14:05;;;;;;;6.60;3.60;;;;;;;7.01;100.00;95751.44;5058741;28;20055;-76
2024/01/04 01:16:31;;;;;;;4.95;3.38;;;;;;;6.95;100.00;95745.84;5043645;28;20037;-76
2024/01/04 01:18:57;;;;;;;6.18;3.58;;;;;;;7.11;100.00;95742.91;5044559;28;20063;-76
2024/01/04 01:21:22;;;;;;;3.35;2.80;;;;;;;7.06;100.00;95724.91;5053227;28;20021;-76
2024/01/04 01:23:48;;;;;;;4.45;2.90;;;;;;;7.09;100.00;95722.06;5047287;28;20028;-76
2024/01/04 01:26:13;;;;;;;2.92;2.15;;;;;;;7.42;100.00;95682.84;5040832;28;20029;-76
2024/01/04 01:28:38;;;;;;;3.92;2.40;;;;;;;7.89;100.00;95653.75;5047863;28;20063;-76
2024/01/04 01:31:04;;;;;;;4.28;2.00;;;;;;;8.13;100.00;95650.88;5053157;28;20028;-77
2024/01/04 01:33:29;;;;;;;5.05;2.60;;;;;;;8.53;100.00;95667.75;5046685;28;20025;-76
2024/01/04 01:35:54;;;;;;;4.63;1.95;;;;;;;8.91;100.00;95657.53;5053996;28;20096;-76
2024/01/04 01:38:20;;;;;;;4.10;2.40;;;;;;;9.17;100.00;95652.66;5050724;28;20024;-75
2024/01/04 01:40:45;;;;;;;7.70;2.40;;;;;;;9.21;100.00;95650.59;5049252;28;20552;-76
2024/01/04 01:43:12;;;;;;;2.70;1.80;;;;;;;9.35;100.00;95646.72;5041826;28;20033;-76
2024/01/04 01:45:37;;;;;;;5.55;2.33;;;;;;;9.10;100.00;95677.78;5048106;28;20474;-75
2024/01/04 01:48:04;;;;;;;5.18;2.65;;;;;;;9.03;100.00;95697.66;5046762;28;20041;-76
2024/01/04 01:50:31;;;;;;;3.35;2.33;;;;;;;9.09;100.00;95705.00;5045962;28;20027;-76
2024/01/04 01:52:57;;;;;;;6.05;2.25;;;;;;;9.05;100.00;95708.88;5045690;28;20033;-75
2024/01/04 01:55:24;;;;;;;3.97;2.22;;;;;;;8.96;100.00;95688.66;5047677;28;20025;-76
2024/01/04 01:57:51;;;;;;;6.25;2.47;;;;;;;8.96;100.00;95699.16;5041216;28;20025;-76
2024/01/04 02:00:17;;;;;;;6.05;2.40;;;;;;;9.03;100.00;95679.28;5037776;28;20022;-76
2024/01/04 02:02:48;;;;;;;5.03;2.55;;;;;;;9.57;100.00;95682.47;5057802;28;20021;-75
2024/01/04 02:05:14;;;;;;;6.13;3.13;;;;;;;9.25;100.00;95694.00;5039508;28;20025;-75
2024/01/04 02:07:40;;;;;;;6.57;2.95;;;;;;;9.23;100.00;95710.88;5051446;28;20029;-76
2024/01/04 02:10:06;;;;;;;8.77;2.60;;;;;;;9.57;100.00;95713.16;5048431;28;20029;-76
2024/01/04 02:12:32;;;;;;;5.50;2.58;;;;;;;9.44;100.00;95709.00;5043544;28;20020;-75
2024/01/04 02:14:57;;;;;;;5.55;2.60;;;;;;;9.17;100.00;95706.97;5048386;28;20500;-75
2024/01/04 02:17:24;;;;;;;6.15;2.65;;;;;;;9.22;100.00;95689.00;5043459;28;20033;-76
2024/01/04 02:19:49;;;;;;;5.53;2.80;;;;;;;9.16;100.00;95706.13;5040384;28;20037;-76
2024/01/04 02:22:17;;;;;;;6.32;2.08;;;;;;;9.19;100.00;95712.13;5047441;28;20021;-75
2024/01/04 02:24:43;;;;;;;5.72;2.60;;;;;;;9.48;100.00;95706.09;5040642;28;20032;-76
2024/01/04 02:27:08;;;;;;;6.40;2.97;;;;;;;9.26;100.00;95715.88;5043906;28;20021;-75
2024/01/04 02:29:33;;;;;;;5.40;2.40;;;;;;;9.40;100.00;95710.25;5048269;28;20036;-75
2024/01/04 02:32:00;;;;;;;6.63;2.53;;;;;;;9.27;100.00;95709.63;5048227;28;20052;-76
2024/01/04 02:34:26;;;;;;;5.80;2.55;;;;;;;9.00;100.00;95698.75;5042126;28;20036;-75
2024/01/04 02:36:51;;;;;;;3.40;2.05;;;;;;;8.86;100.00;95712.25;5051200;28;20053;-75
2024/01/04 02:39:16;;;;;;;4.07;2.40;;;;;;;8.94;100.00;95714.19;5044534;28;20032;-76
2024/01/04 02:41:42;;;;;;;4.28;2.00;;;;;;;8.80;100.00;95724.09;5047111;28;20032;-76
2024/01/04 02:44:07;;;;;;;6.05;2.42;;;;;;;8.84;100.00;95735.16;5042776;28;20058;-75
2024/01/04 02:46:32;;;;;;;7.28;3.05;;;;;;;8.52;100.00;95754.44;5041974;28;20036;-77
2024/01/04 02:48:58;;;;;;;6.22;2.80;;;;;;;8.58;100.00;95754.78;5039633;28;20057;-76
2024/01/04 02:51:23;;;;;;;6.10;2.58;;;;;;;8.28;100.00;95769.41;5041826;28;20067;-76
2024/01/04 02:53:49;;;;;;;5.60;2.80;;;;;;;8.17;100.00;95751.13;5046350;28;20402;-76
2024/01/04 02:56:14;;;;;;;5.38;2.80;;;;;;;8.17;100.00;95761.63;5041550;28;20112;-76
2024/01/04 02:58:39;;;;;;;6.25;2.97;;;;;;;7.97;100.00;95765.88;5052546;28;20025;-76
2024/01/04 03:01:05;;;;;;;5.25;3.50;;;;;;;7.79;100.00;95778.66;5047887;28;20032;-76
2024/01/04 03:03:30;;;;;;;7.97;4.05;;;;;;;7.59;100.00;95781.06;5054804;28;20561;-77
2024/01/04 03:05:56;;;;;;;6.38;3.38;;;;;;;7.43;100.00;95786.69;5044984;28;20025;-76
2024/01/04 03:08:21;;;;;;;5.68;2.50;;;;;;;7.53;100.00;95790.25;5046179;28;20129;-76
2024/01/04 03:10:46;;;;;;;10.45;3.25;;;;;;;7.45;100.00;95795.25;5050816;28;20021;-76
2024/01/04 03:13:12;;;;;;;7.10;3.13;;;;;;;7.25;100.00;95826.44;5049041;28;20053;-75
2024/01/04 03:15:37;;;;;;;7.90;2.65;;;;;;;7.05;100.00;95856.75;5044532;28;20033;-75
2024/01/04 03:18:02;;;;;;;4.25;2.70;;;;;;;7.05;100.00;95858.53;5056723;28;20032;-76
2024/01/04 03:20:28;;;;;;;7.00;3.10;;;;;;;6.91;100.00;95857.81;5039450;28;20079;-76
2024/01/04 03:22:53;;;;;;;6.63;2.65;;;;;;;6.79;100.00;95856.09;5041011;28;20048;-76
2024/01/04 03:25:19;;;;;;;11.10;4.97;;;;;;;6.74;100.00;95872.13;5056872;28;20024;-76
2024/01/04 03:27:44;;;;;;;8.80;5.60;;;;;;;6.66;100.00;95890.19;5051588;28;20098;-76
2024/01/04 03:30:10;;;;;;;5.00;2.72;;;;;;;6.56;100.00;95903.09;5057284;28;20028;-76
2024/01/04 03:32:36;;;;;;;5.90;2.60;;;;;;;6.55;100.00;95907.53;5056803;28;20028;-77
2024/01/04 03:35:03;;;;;;;4.63;2.72;;;;;;;6.59;100.00;95890.66;5056937;28;20025;-76
2024/01/04 03:37:28;;;;;;;3.65;2.42;;;;;;;6.63;100.00;95890.41;5055107;28;20025;-76
2024/01/04 03:39:53;;;;;;;6.15;2.67;;;;;;;6.65;100.00;95881.53;5056220;28;20059;-76
2024/01/04 03:42:19;;;;;;;5.70;2.65;;;;;;;6.65;100.00;95872.81;5055715;28;20935;-76
2024/01/04 03:44:44;;;;;;;6.75;3.50;;;;;;;6.61;100.00;95845.22;5056620;28;20082;-76
2024/01/04 03:47:10;;;;;;;12.23;5.45;;;;;;;6.54;100.00;95863.16;5055534;28;20578;-77
2024/01/04 03:49:36;;;;;;;7.95;3.92;;;;;;;6.38;100.00;95884.38;5057129;28;20033;-76
2024/01/04 03:52:02;;;;;;;5.32;2.47;;;;;;;6.40;100.00;95888.53;5053314;28;20013;-76
2024/01/04 03:54:27;;;;;;;8.57;4.30;;;;;;;6.43;100.00;95880.47;5056697;28;20039;-76
2024/01/04 03:56:54;;;;;;;6.65;3.15;;;;;;;6.45;100.00;95875.13;5039247;28;20116;-76
2024/01/04 03:59:20;;;;;;;6.45;2.58;;;;;;;6.56;100.00;95859.47;5046103;28;20051;-77
2024/01/04 04:01:45;;;;;;;3.45;2.42;;;;;;;6.47;100.00;95872.41;5040378;28;20029;-78
2024/01/04 04:04:12;;;;;;;7.30;3.90;;;;;;;6.41;100.00;95864.06;5046619;28;20024;-77
2024/01/04 04:06:37;;;;;;;7.00;3.65;;;;;;;6.32;100.00;95879.59;5051565;28;20028;-78
2024/01/04 04:09:03;;;;;;;6.60;3.28;;;;;;;6.26;100.00;95897.38;5047534;28;20073;-78
2024/01/04 04:11:28;;;;;;;5.03;2.90;;;;;;;6.16;100.00;95897.19;5038479;28;20087;-78
2024/01/04 04:13:54;;;;;;;7.20;2.85;;;;;;;6.13;100.00;95907.88;5037444;28;20036;-78
2024/01/04 04:16:19;;;;;;;7.82;4.15;;;;;;;6.14;100.00;95913.94;5039085;28;20036;-77
2024/01/04 04:18:45;;;;;;;10.40;6.18;;;;;;;6.15;100.00;95913.00;5050039;28;20055;-77
2024/01/04 04:21:18;;;;;;;36.42;24.25;;;;;;;6.21;100.00;95904.72;5055869;28;20032;-77
2024/01/04 04:23:47;;;;;;;23.25;13.48;;;;;;;6.21;100.00;95915.16;5055707;28;20071;-77
2024/01/04 04:26:12;;;;;;;15.73;9.63;;;;;;;6.19;100.00;95927.50;5049646;28;20033;-77
2024/01/04 04:28:38;;;;;;;10.68;5.03;;;;;;;6.10;100.00;95923.78;5037355;28;20043;-77
2024/01/04 04:31:03;;;;;;;7.10;3.80;;;;;;;6.02;100.00;95931.34;5036562;28;20026;-77
2024/01/04 04:33:28;;;;;;;8.15;4.43;;;;;;;5.95;100.00;95933.50;5036732;28;20120;-77
2024/01/04 04:35:54;;;;;;;7.95;4.05;;;;;;;5.82;100.00;95928.31;5043422;28;20036;-76
2024/01/04 04:38:19;;;;;;;19.35;17.30;;;;;;;5.81;100.00;95920.56;5042813;28;20029;-76
2024/01/04 04:40:45;;;;;;;4.57;2.85;;;;;;;5.81;100.00;95910.09;5043456;28;20794;-76
2024/01/04 04:43:10;;;;;;;7.15;2.88;;;;;;;5.82;100.00;95914.38;5044897;28;20025;-76
2024/01/04 04:45:36;;;;;;;11.93;3.38;;;;;;;5.74;100.00;95931.44;5055634;28;20027;-76
2024/01/04 04:48:01;;;;;;;7.60;2.60;;;;;;;5.69;100.00;95941.38;5055188;28;20409;-76
2024/01/04 04:50:27;;;;;;;6.72;3.20;;;;;;;5.67;100.00;95945.88;5055261;28;20021;-76
2024/01/04 04:52:52;;;;;;;8.52;3.20;;;;;;;5.66;100.00;95944.19;5055454;28;20029;-77
2024/01/04 04:55:17;;;;;;;6.22;2.55;;;;;;;5.80;100.00;95950.25;5051680;28;20028;-76
2024/01/04 04:57:43;;;;;;;9.00;2.85;;;;;;;5.65;100.00;95952.13;5045212;28;20052;-76
2024/01/04 05:00:08;;;;;;;10.02;6.82;;;;;;;5.64;100.00;95946.09;5040514;28;20505;-76
2024/01/04 05:02:34;;;;;;;11.75;4.35;;;;;;;5.61;100.00;95943.66;5045024;28;20028;-76
2024/01/04 05:04:59;;;;;;;7.18;3.50;;;;;;;5.61;100.00;95950.69;5041735;28;20033;-77
2024/01/04 05:07:25;;;;;;;6.75;2.75;;;;;;;5.54;100.00;95950.25;5044414;28;20024;-76
2024/01/04 05:09:50;;;;;;;6.07;2.60;;;;;;;5.56;100.00;95945.75;5041542;28;20025;-76
2024/01/04 05:12:15;;;;;;;6.22;2.83;;;;;;;5.54;100.00;95942.41;5036702;28;20028;-76
2024/01/04 05:14:41;;;;;;;7.20;2.80;;;;;;;5.60;100.00;95944.59;5037234;28;20100;-76
2024/01/04 05:17:06;;;;;;;8.95;6.38;;;;;;;5.53;100.00;95945.97;5040405;28;20037;-76
2024/01/04 05:19:31;;;;;;;5.40;4.20;;;;;;;5.60;100.00;95936.75;5055320;28;20041;-76
2024/01/04 05:21:57;;;;;;;4.68;3.55;;;;;;;5.60;100.00;95939.38;5054726;28;20021;-76
2024/01/04 05:24:22;;;;;;;9.50;3.20;;;;;;;5.43;100.00;95928.34;5053576;28;20098;-76
2024/01/04 05:26:47;;;;;;;6.85;2.85;;;;;;;5.44;100.00;95934.38;5054007;28;20409;-75
2024/01/04 05:29:13;;;;;;;5.43;2.92;;;;;;;5.38;100.00;95940.84;5054676;28;20498;-77
2024/01/04 05:31:38;;;;;;;6.80;3.42;;;;;;;5.36;100.00;95929.66;5047860;28;20025;-78
2024/01/04 05:34:03;;;;;;;7.10;3.25;;;;;;;5.32;100.00;95938.66;5050747;28;20025;-79
2024/01/04 05:36:30;;;;;;;6.10;2.75;;;;;;;5.30;100.00;95932.69;5051239;28;20027;-77
2024/01/04 05:38:55;;;;;;;7.80;2.33;;;;;;;5.25;100.00;95926.97;5054416;28;20378;-77
2024/01/04 05:41:21;;;;;;;8.95;4.03;;;;;;;5.24;100.00;95914.84;5048781;28;20052;-77
2024/01/04 05:43:46;;;;;;;5.53;2.78;;;;;;;5.21;100.00;95902.00;5055880;28;20113;-77
2024/01/04 05:46:11;;;;;;;5.97;2.95;;;;;;;5.18;100.00;95900.44;5051478;28;20088;-78
2024/01/04 05:48:37;;;;;;;7.13;2.90;;;;;;;5.14;100.00;95904.19;5054091;28;20453;-78
2024/01/04 05:51:03;;;;;;;4.15;2.38;;;;;;;5.08;100.00;95907.19;5054829;28;20029;-77
2024/01/04 05:53:28;;;;;;;6.47;3.22;;;;;;;5.10;100.00;95906.16;5051007;28;20029;-78
2024/01/04 05:55:54;;;;;;;7.65;5.00;;;;;;;5.48;100.00;95914.94;5047081;28;20030;-78
2024/01/04 05:58:19;;;;;;;6.97;4.40;;;;;;;5.17;100.00;95919.63;5050724;28;20063;-78
2024/01/04 06:00:45;;;;;;;7.38;4.45;;;;;;;5.07;100.00;95929.00;5053901;28;20486;-78
2024/01/04 06:03:10;;;;;;;21.35;10.95;;;;;;;5.27;100.00;95933.72;5054064;28;20107;-78
2024/01/04 06:05:35;;;;;;;10.43;6.32;;;;;;;5.16;100.00;95937.06;5054519;28;20017;-78
2024/01/04 06:08:01;;;;;;;12.07;6.15;;;;;;;4.92;100.00;95952.59;5050013;28;20382;-78
2024/01/04 06:10:26;;;;;;;14.52;8.93;;;;;;;4.94;100.00;95957.69;5054560;28;20021;-77
2024/01/04 06:12:52;;;;;;;22.77;12.88;;;;;;;4.92;100.00;95955.19;5051255;28;20024;-77
2024/01/04 06:15:17;;;;;;;13.07;10.13;;;;;;;4.88;100.00;95949.34;5054586;28;20013;-77
2024/01/04 06:17:43;;;;;;;12.50;8.70;;;;;;;4.92;100.00;95955.19;5050683;28;20026;-77
2024/01/04 06:20:09;;;;;;;53.40;47.70;;;;;;;4.97;100.00;95949.66;5053589;28;20052;-77
2024/01/04 06:22:34;;;;;;;29.13;23.42;;;;;;;4.93;100.00;95949.03;5057428;28;20032;-77
2024/01/04 06:24:59;;;;;;;21.52;16.80;;;;;;;4.92;100.00;95959.56;5056935;28;20035;-77
2024/01/04 06:27:25;;;;;;;18.70;13.88;;;;;;;4.92;100.00;95965.63;5049700;28;20032;-78
2024/01/04 06:29:51;;;;;;;36.75;30.67;;;;;;;4.90;100.00;95966.66;5045124;28;20069;-78
2024/01/04 06:32:16;;;;;;;102.65;92.38;;;;;;;4.92;100.00;95963.03;5050084;28;20530;-77
2024/01/04 06:34:41;;;;;;;16.10;13.73;;;;;;;4.92;100.00;95962.16;5044504;28;20540;-77
2024/01/04 06:37:07;;;;;;;11.15;9.75;;;;;;;4.94;100.00;95973.34;5058402;28;20036;-77
2024/01/04 06:39:32;;;;;;;37.30;33.60;;;;;;;4.91;100.00;95966.56;5053385;28;20033;-77
2024/01/04 06:41:58;;;;;;;18.45;16.45;;;;;;;4.85;100.00;95970.41;5040997;28;20021;-77
2024/01/04 06:44:23;;;;;;;22.38;16.27;;;;;;;4.85;100.00;95970.41;5043129;28;20029;-77
2024/01/04 06:46:49;;;;;;;10.07;7.25;;;;;;;4.80;100.00;95972.47;5041298;28;20402;-77
2024/01/04 06:49:14;;;;;;;7.40;5.60;;;;;;;4.75;100.00;95978.94;5053487;28;20033;-77
2024/01/04 06:51:39;;;;;;;8.55;5.10;;;;;;;4.76;100.00;95985.81;5040226;28;20022;-77
2024/01/04 06:54:05;;;;;;;12.07;7.65;;;;;;;4.84;100.00;95978.31;5055054;28;20032;-77
2024/01/04 06:56:30;;;;;;;12.55;7.63;;;;;;;4.84;100.00;95976.56;5038526;28;20104;-77
2024/01/04 06:58:55;;;;;;;15.18;10.25;;;;;;;4.90;100.00;95982.31;5056589;28;20469;-78
2024/01/04 07:01:21;;;;;;;9.35;6.50;;;;;;;4.87;100.00;95980.75;5052066;28;20111;-77
2024/01/04 07:03:47;;;;;;;12.27;7.75;;;;;;;4.95;100.00;95977.63;5051660;28;20024;-77
2024/01/04 07:06:13;;;;;;;21.20;19.05;;;;;;;4.95;100.00;95975.88;5051759;28;20087;-76
2024/01/04 07:08:38;;;;;;;24.13;21.02;;;;;;;4.90;100.00;95984.91;5057322;28;20028;-77
2024/01/04 07:11:05;;;;;;;17.92;13.27;;;;;;;4.90;100.00;95979.69;5051309;28;20406;-77
2024/01/04 07:13:32;;;;;;;17.58;15.18;;;;;;;4.91;100.00;95987.44;5050842;28;20104;-78
2024/01/04 07:15:58;;;;;;;16.92;12.23;;;;;;;4.88;100.00;95993.69;5050806;28;20060;-77
2024/01/04 07:18:23;;;;;;;12.02;9.35;;;;;;;4.75;100.00;95990.19;5044611;28;20500;-77
2024/01/04 07:20:49;;;;;;;7.90;6.03;;;;;;;4.70;100.00;95997.47;5051158;28;20032;-77
2024/01/04 07:23:14;;;;;;;12.23;6.70;;;;;;;4.70;100.00;95994.88;5057403;28;20037;-76
2024/01/04 07:25:39;;;;;;;10.60;6.65;;;;;;;4.76;100.00;95989.28;5046556;28;20021;-77
2024/01/04 07:28:05;;;;;;;15.27;7.47;;;;;;;4.66;100.00;95986.41;5056533;28;20100;-76
2024/01/04 07:30:30;;;;;;;7.05;5.20;;;;;;;4.63;100.00;95983.16;5057520;28;20028;-76
2024/01/04 07:32:56;;;;;;;5.30;3.90;;;;;;;4.69;100.00;95985.38;5051947;28;20025;-76
2024/01/04 07:35:23;;;;;;;8.75;6.13;;;;;;;4.70;100.00;95982.69;5056956;28;20100;-76
2024/01/04 07:37:49;;;;;;;50.63;46.13;;;;;;;4.72;100.00;95988.63;5056560;28;20029;-76
2024/01/04 07:40:14;;;;;;;30.40;27.42;;;;;;;4.76;100.00;95984.06;5045902;28;20090;-76
2024/01/04 07:42:40;;;;;;;14.43;11.85;;;;;;;4.80;100.00;95988.13;5039292;28;20506;-76
2024/01/04 07:45:05;;;;;;;18.02;16.15;;;;;;;4.80;100.00;95982.06;5038933;28;20083;-76
2024/01/04 07:47:31;;;;;;;19.27;17.45;;;;;;;4.80;100.00;95982.91;5051494;28;20049;-77
2024/01/04 07:49:56;;;;;;;22.77;19.83;;;;;;;4.74;100.00;95983.28;5046733;28;20493;-76
2024/01/04 07:52:22;;;;;;;26.40;23.77;;;;;;;4.66;100.00;95982.97;5055903;28;20455;-76
2024/01/04 07:54:47;;;;;;;33.40;30.05;;;;;;;4.58;100.00;95989.50;5045138;28;20109;-76
2024/01/04 07:57:13;;;;;;;23.45;21.00;;;;;;;4.51;100.00;95985.59;5038934;28;20052;-76
2024/01/04 07:59:39;;;;;;;17.70;14.02;;;;;;;4.46;100.00;95984.25;5036794;28;20044;-76
2024/01/04 08:02:05;;;;;;;23.83;20.13;;;;;;;4.41;100.00;95984.53;5037014;28;20109;-76
2024/01/04 08:04:30;;;;;;;24.08;17.45;;;;;;;4.34;100.00;95988.47;5037032;28;20053;-76
2024/01/04 08:06:56;;;;;;;25.40;20.15;;;;;;;4.28;100.00;95981.84;5040144;28;20458;-76
2024/01/04 08:09:21;;;;;;;20.92;18.70;;;;;;;4.27;100.00;95981.00;5051570;28;20024;-76
2024/01/04 08:11:47;;;;;;;13.13;11.82;;;;;;;4.30;100.00;95988.63;5047387;28;20474;-76
2024/01/04 08:14:12;;;;;;;12.60;9.30;;;;;;;4.34;100.00;95978.03;5048607;28;20026;-76
2024/01/04 08:16:38;;;;;;;15.68;13.60;;;;;;;4.35;100.00;95974.50;5050493;28;20037;-78
2024/01/04 08:19:04;;;;;;;19.13;14.15;;;;;;;4.35;100.00;95983.13;5040175;28;20025;-76
2024/01/04 08:21:29;;;;;;;27.42;21.85;;;;;;;4.39;100.00;95979.38;5043430;28;20724;-76
2024/01/04 08:23:55;;;;;;;31.95;27.73;;;;;;;4.34;100.00;95981.47;5048901;28;20117;-77
2024/01/04 08:26:20;;;;;;;26.95;23.67;;;;;;;4.31;100.00;95989.47;5046070;28;20067;-74
2024/01/04 08:28:46;;;;;;;30.55;26.13;;;;;;;4.30;100.00;95985.19;5046079;28;20044;-76
2024/01/04 08:31:11;;;;;;;28.80;20.48;;;;;;;4.26;100.00;95981.13;5042355;28;20029;-76
2024/01/04 08:33:37;;;;;;;22.63;18.90;;;;;;;4.21;100.00;95970.97;5044702;28;20112;-76
2024/01/04 08:36:02;;;;;;;38.33;30.67;;;;;;;4.14;100.00;95959.25;5042379;28;20025;-77
2024/01/04 08:38:29;;;;;;;25.63;21.23;;;;;;;4.09;100.00;95961.28;5041916;28;20029;-76
2024/01/04 08:40:54;;;;;;;19.13;12.18;;;;;;;4.14;100.00;95954.06;5042261;28;20039;-74
2024/01/04 08:43:20;;;;;;;15.38;10.43;;;;;;;4.15;100.00;95951.31;5041027;28;20112;-76
2024/01/04 08:45:45;;;;;;;26.70;17.55;;;;;;;4.22;100.00;95957.00;5046238;28;20036;-76
2024/01/04 08:48:11;;;;;;;21.48;16.63;;;;;;;4.31;100.00;95952.97;5043498;28;20037;-77
2024/01/04 08:50:36;;;;;;;15.45;11.80;;;;;;;4.38;100.00;95962.06;5048638;28;20029;-76
2024/01/04 08:53:01;;;;;;;24.30;13.25;;;;;;;4.48;100.00;95958.91;5045703;28;20116;-76
2024/01/04 08:55:27;;;;;;;18.33;15.45;;;;;;;4.52;100.00;95958.59;5042976;28;20100;-76
2024/01/04 08:57:52;;;;;;;18.35;12.52;;;;;;;4.59;100.00;95962.50;5045765;28;20033;-76
2024/01/04 09:00:18;;;;;;;7.22;4.43;;;;;;;4.65;100.00;95969.09;5041816;28;20065;-76
2024/01/04 09:02:45;;;;;;;9.50;4.80;;;;;;;4.85;100.00;95970.41;5045299;28;20592;-76
2024/01/04 09:05:11;;;;;;;7.13;4.18;;;;;;;4.88;100.00;95974.59;5039853;28;20033;-76
2024/01/04 09:07:37;;;;;;;6.78;3.72;;;;;;;4.93;100.00;95987.31;5037106;28;20033;-75
2024/01/04 09:10:04;;;;;;;6.93;4.45;;;;;;;4.92;100.00;95990.88;5048435;28;20029;-76
2024/01/04 09:12:30;;;;;;;35.95;27.83;;;;;;;4.94;100.00;95982.03;5043042;28;20073;-75
2024/01/04 09:14:56;;;;;;;17.98;16.17;;;;;;;5.01;100.00;95978.06;5045042;28;20067;-75
2024/01/04 09:17:21;;;;;;;46.72;35.45;;;;;;;5.14;100.00;95987.72;5048749;28;20128;-75
2024/01/04 09:19:47;;;;;;;14.32;10.98;;;;;;;5.28;100.00;95979.78;5052881;28;20023;-76
2024/01/04 09:22:12;;;;;;;13.00;8.40;;;;;;;5.39;100.00;95978.25;5051187;28;20021;-77
2024/01/04 09:24:38;;;;;;;5.32;3.42;;;;;;;5.51;100.00;95980.00;5047793;28;20020;-76
2024/01/04 09:27:04;;;;;;;7.43;4.95;;;;;;;5.59;100.00;95976.88;5047092;28;20044;-76
2024/01/04 09:29:30;;;;;;;7.10;3.60;;;;;;;5.69;100.00;95964.88;5047138;28;20033;-74
2024/01/04 09:31:55;;;;;;;6.47;2.95;;;;;;;5.78;100.00;95959.97;5047706;28;20059;-73
2024/01/04 09:34:21;;;;;;;6.53;5.25;;;;;;;5.88;100.00;95958.41;5051510;28;20078;-74
2024/01/04 09:36:46;;;;;;;6.40;4.75;;;;;;;5.90;100.00;95964.34;5054754;28;20031;-75
2024/01/04 09:39:17;;;;;;;7.63;5.40;;;;;;;6.02;100.00;95955.69;5047936;28;20032;-76
2024/01/04 09:41:46;;;;;;;4.35;3.92;;;;;;;6.20;100.00;95968.41;5051438;28;20029;-77
2024/01/04 09:44:13;;;;;;;6.15;5.07;;;;;;;6.33;100.00;95957.09;5039322;28;20037;-78
2024/01/04 09:46:39;;;;;;;11.45;9.18;;;;;;;6.48;100.00;95952.53;5045331;28;20695;-78
2024/01/04 09:49:07;;;;;;;7.97;7.10;;;;;;;6.79;100.00;95940.69;5050289;28;20382;-75
2024/01/04 09:51:34;;;;;;;13.63;10.50;;;;;;;6.91;100.00;95930.25;5039821;28;20040;-75
2024/01/04 09:54:00;;;;;;;13.35;10.57;;;;;;;6.95;100.00;95940.38;5048865;28;20021;-73
2024/01/04 09:56:27;;;;;;;12.13;9.38;;;;;;;7.14;100.00;95932.00;5052058;28;20033;-75
2024/01/04 09:58:53;;;;;;;5.95;4.80;;;;;;;7.27;100.00;95941.56;5043663;28;20022;-74
2024/01/04 10:01:39;;;;;;;13.95;10.27;;;;;;;7.42;100.00;95934.31;5043292;28;20031;-77
2024/01/04 10:04:06;;;;;;;8.35;6.38;;;;;;;7.51;100.00;95931.00;5041542;28;20052;-76
2024/01/04 10:06:34;;;;;;;13.23;10.07;;;;;;;7.66;100.00;95920.28;5043624;28;20104;-76
2024/01/04 10:09:31;;;;;;;9.57;7.10;;;;;;;7.70;100.00;95906.00;5040346;28;20453;-77
2024/01/04 10:11:56;;;;;;;9.43;7.53;;;;;;;7.85;100.00;95886.47;5064161;28;20071;-77
2024/01/04 10:14:23;;;;;;;9.07;5.07;;;;;;;7.91;100.00;95881.69;5051068;28;20028;-77
2024/01/04 10:16:49;;;;;;;10.38;6.75;;;;;;;7.91;100.00;95869.44;5038334;28;20053;-78
2024/01/04 10:19:14;;;;;;;6.05;4.55;;;;;;;7.85;100.00;95875.97;5050557;28;20111;-77
2024/01/04 10:21:40;;;;;;;6.60;5.00;;;;;;;8.12;100.00;95876.53;5049573;28;20107;-76
2024/01/04 10:24:05;;;;;;;7.13;4.60;;;;;;;8.29;100.00;95862.94;5050378;28;20029;-78
2024/01/04 10:26:32;;;;;;;6.45;5.07;;;;;;;8.35;100.00;95852.88;5050902;28;20641;-76
2024/01/04 10:29:02;;;;;;;6.55;3.83;;;;;;;8.40;100.00;95866.47;5053126;28;20075;-77
2024/01/04 10:31:28;;;;;;;6.80;3.20;;;;;;;8.44;100.00;95849.50;5038669;28;20026;-77
2024/01/04 10:34:00;;;;;;;4.32;2.55;;;;;;;8.52;100.00;95844.50;5042224;28;20116;-77
2024/01/04 10:36:29;;;;;;;6.78;3.45;;;;;;;8.53;100.00;95824.34;5046726;28;20568;-77
2024/01/04 10:38:57;;;;;;;11.35;7.25;;;;;;;8.65;100.00;95828.59;5049713;28;20032;-78
2024/01/04 10:41:22;;;;;;;8.05;4.90;;;;;;;8.58;100.00;95820.38;5047423;28;20028;-76
2024/01/04 10:43:48;;;;;;;6.57;3.25;;;;;;;8.65;100.00;95820.72;5042814;28;20018;-76
2024/01/04 10:46:13;;;;;;;5.95;3.40;;;;;;;8.76;100.00;95800.59;5041851;28;20017;-78
2024/01/04 10:48:39;;;;;;;6.72;4.53;;;;;;;8.85;100.00;95800.66;5040560;28;20068;-77
2024/01/04 10:51:06;;;;;;;8.02;3.92;;;;;;;8.98;100.00;95804.91;5048128;28;20085;-78
2024/01/04 10:53:38;;;;;;;5.70;3.33;;;;;;;9.23;100.00;95795.75;5042459;28;20104;-74
2024/01/04 10:56:05;;;;;;;6.13;4.88;;;;;;;9.53;100.00;95793.25;5045684;28;20055;-74
2024/01/04 10:58:38;;;;;;;6.95;3.92;;;;;;;9.69;100.00;95783.06;5046918;28;20051;-76
2024/01/04 11:01:04;;;;;;;7.47;3.42;;;;;;;9.88;100.00;95789.34;5051410;28;20116;-78
2024/01/04 11:03:33;;;;;;;5.60;4.07;;;;;;;9.92;100.00;95785.47;5041323;28;20241;-77
2024/01/04 11:05:59;;;;;;;6.13;3.88;;;;;;;9.92;100.00;95780.22;5043711;28;20510;-77
2024/01/04 11:08:28;;;;;;;7.32;4.10;;;;;;;10.00;100.00;95777.72;5049471;28;20032;-77
2024/01/04 11:10:54;;;;;;;5.38;3.58;;;;;;;9.79;100.00;95779.63;5048057;28;20159;-76
2024/01/04 11:13:20;;;;;;;7.28;4.70;;;;;;;9.71;100.00;95773.25;5049144;28;20150;-76
2024/01/04 11:15:51;;;;;;;11.65;7.97;;;;;;;9.78;100.00;95772.72;5051469;28;20108;-80
2024/01/04 11:18:36;;;;;;;41.20;26.55;;;;;;;9.65;100.00;95762.44;5045262;28;20551;-76
2024/01/04 11:21:32;;;;;;;30.40;21.25;;;;;;;9.60;100.00;95760.22;5049546;28;20021;-77
2024/01/04 11:24:08;;;;;;;66.03;41.47;;;;;;;9.61;100.00;95756.59;5049234;28;20025;-75